createdAt,value
2023-03-26T00:03:24.062Z,1.63
2023-03-26T00:13:25.985Z,1.45
2023-03-26T00:23:29.309Z,1.50
2023-03-26T00:33:31.337Z,2.50
2023-03-26T00:43:35.818Z,2.40
2023-03-26T00:53:38.470Z,1.88
2023-03-26T01:03:50.094Z,2.08
2023-03-26T01:14:08.596Z,1.92
2023-03-26T01:24:10.591Z,2.60
2023-03-26T01:34:49.583Z,2.63
2023-03-26T01:44:59.971Z,3.50
2023-03-26T01:55:02.429Z,2.30
2023-03-26T02:05:14.990Z,2.72
2023-03-26T02:15:16.920Z,2.50
2023-03-26T02:25:20.746Z,2.50
2023-03-26T02:35:24.312Z,1.52
2023-03-26T02:45:32.118Z,1.58
2023-03-26T02:56:00.729Z,2.10
2023-03-26T03:06:10.145Z,1.30
2023-03-26T03:16:20.157Z,2.40
2023-03-26T03:26:24.638Z,1.92
2023-03-26T03:36:28.459Z,1.75
2023-03-26T03:46:37.835Z,1.13
2023-03-26T03:56:40.309Z,1.80
2023-03-26T04:06:57.750Z,1.63
2023-03-26T04:17:02.747Z,1.98
2023-03-26T04:27:12.193Z,1.95
2023-03-26T04:37:48.418Z,2.53
2023-03-26T04:47:59.224Z,1.17
2023-03-26T04:58:01.634Z,1.50
2023-03-26T05:08:32.798Z,0.93
2023-03-26T05:18:35.158Z,1.38
2023-03-26T05:28:38.296Z,1.38
2023-03-26T05:48:55.521Z,1.15
2023-03-26T05:58:57.718Z,2.03
2023-03-26T06:09:18.238Z,1.23
2023-03-26T06:19:20.843Z,2.10
2023-03-26T06:30:01.140Z,1.53
2023-03-26T06:40:28.921Z,1.48
2023-03-26T06:50:43.870Z,2.15
2023-03-26T07:00:56.022Z,1.10
2023-03-26T07:11:16.575Z,1.27
2023-03-26T07:21:37.517Z,2.17
2023-03-26T07:31:58.260Z,0.95
2023-03-26T07:42:23.990Z,1.48
2023-03-26T07:52:49.311Z,1.35
2023-03-26T08:03:58.736Z,1.57
2023-03-26T08:15:12.604Z,1.55
2023-03-26T08:25:31.827Z,2.33
2023-03-26T08:35:33.713Z,1.00
2023-03-26T08:46:04.759Z,1.63
2023-03-26T08:56:38.182Z,1.30
2023-03-26T09:06:54.738Z,1.20
2023-03-26T09:17:08.515Z,1.88
2023-03-26T09:27:33.064Z,0.98
2023-03-26T09:37:56.128Z,1.48
2023-03-26T09:48:26.315Z,2.67
2023-03-26T09:59:05.803Z,1.75
2023-03-26T10:09:22.572Z,1.58
2023-03-26T10:19:26.915Z,1.08
2023-03-26T10:29:40.685Z,1.00
2023-03-26T10:40:12.066Z,1.83
2023-03-26T10:50:23.602Z,0.68
2023-03-26T11:00:28.347Z,0.85
2023-03-26T11:10:56.347Z,0.90
2023-03-26T11:21:19.660Z,0.80
2023-03-26T11:31:58.312Z,0.60
2023-03-26T11:42:09.498Z,0.85
2023-03-26T11:52:18.336Z,0.98
2023-03-26T12:02:37.779Z,1.50
2023-03-26T12:12:42.138Z,2.40
2023-03-26T12:22:45.307Z,1.65
2023-03-26T12:32:53.272Z,2.03
2023-03-26T12:44:47.650Z,2.50
2023-03-26T12:53:44.696Z,1.33
2023-03-26T13:04:17.276Z,1.30
2023-03-26T13:14:25.003Z,1.45
2023-03-26T13:25:05.151Z,1.05
2023-03-26T13:35:48.391Z,2.17
2023-03-26T13:46:13.398Z,3.40
2023-03-26T13:56:20.538Z,1.60
2023-03-26T14:06:30.526Z,1.10
2023-03-26T14:16:39.993Z,1.75
2023-03-26T14:37:39.666Z,2.57
2023-03-26T14:47:53.550Z,1.50
2023-03-26T14:58:16.706Z,1.20
2023-03-26T15:08:48.718Z,1.85
2023-03-26T15:19:29.092Z,2.20
2023-03-26T15:30:08.468Z,1.50
2023-03-26T15:40:28.938Z,2.10
2023-03-26T15:51:02.054Z,2.63
2023-03-26T16:01:37.920Z,2.33
2023-03-26T16:11:53.561Z,2.28
2023-03-26T16:22:02.993Z,2.10
2023-03-26T16:32:11.114Z,2.03
2023-03-26T16:42:16.030Z,2.42
2023-03-26T16:52:32.773Z,3.28
2023-03-26T17:02:56.925Z,2.03
2023-03-26T17:13:11.621Z,1.30
2023-03-26T17:23:47.634Z,1.17
2023-03-26T17:33:55.499Z,1.55
2023-03-26T17:43:57.503Z,4.18
2023-03-26T17:54:00.138Z,4.40
2023-03-26T18:04:06.178Z,3.80
2023-03-26T18:14:50.630Z,7.63
2023-03-26T18:24:59.113Z,4.07
2023-03-26T18:35:02.474Z,4.50
2023-03-26T18:45:20.746Z,3.13
2023-03-26T18:55:25.993Z,2.83
2023-03-26T19:05:28.210Z,2.22
2023-03-26T19:15:32.668Z,4.00
2023-03-26T19:25:58.954Z,4.65
2023-03-26T19:36:06.276Z,9.93
2023-03-26T19:46:13.517Z,14.13
2023-03-26T19:56:15.801Z,15.32
2023-03-26T20:06:22.194Z,19.90
2023-03-26T20:16:32.109Z,18.40
2023-03-26T20:26:34.025Z,15.77
2023-03-26T20:36:36.821Z,13.75
2023-03-26T20:46:38.755Z,11.95
2023-03-26T20:56:40.698Z,13.63
2023-03-26T21:06:43.225Z,11.27
2023-03-26T21:16:45.532Z,13.35
2023-03-26T21:27:20.129Z,18.63
2023-03-26T21:37:22.249Z,19.63
2023-03-26T21:47:24.424Z,21.98
2023-03-26T21:57:58.658Z,16.60
2023-03-26T22:08:03.200Z,19.40
2023-03-26T22:18:05.599Z,31.27
2023-03-26T22:28:07.446Z,27.00
2023-03-26T22:38:09.669Z,20.00
2023-03-26T22:48:11.537Z,19.80
2023-03-26T22:58:13.434Z,16.02
2023-03-26T23:08:15.218Z,10.85
2023-03-26T23:18:18.255Z,10.88
2023-03-26T23:28:20.636Z,12.95
2023-03-26T23:38:22.888Z,18.27
2023-03-26T23:48:25.554Z,19.17
2023-03-26T23:58:29.219Z,16.70
